Time;durP1;ratioP1;P1;durP2;ratioP2;P2;SDS_P1;SDS_P2;PMS_P1;PMS_P2;Temp;Humidity;BMP_temperature;BMP_pressure;BME280_temperature;BME280_humidity;BME280_pressure;Samples;Min_cycle;Max_cycle;Signal;HPM_P1;HPM_P2
2021/01/22 00:00:14;;;;;;;3.07;1.10;;;12.10;99.90;;;;;;5054645;28;20568;-80
2021/01/22 00:02:41;;;;;;;2.93;1.00;;;12.00;99.90;;;;;;5046920;28;20488;-79
2021/01/22 00:05:08;;;;;;;2.93;0.90;;;11.90;99.90;;;;;;5044877;28;20443;-81
2021/01/22 00:07:35;;;;;;;2.83;1.00;;;11.90;99.90;;;;;;5053011;28;20471;-80
2021/01/22 00:10:01;;;;;;;5.27;1.00;;;11.80;99.90;;;;;;5055627;28;20577;-80
2021/01/22 00:12:28;;;;;;;3.23;0.87;;;11.80;99.90;;;;;;5052507;28;20430;-81
2021/01/22 00:14:55;;;;;;;2.93;0.80;;;11.80;99.90;;;;;;5050220;28;20450;-80
2021/01/22 00:17:22;;;;;;;3.40;1.10;;;11.70;99.90;;;;;;5046952;28;20444;-80
2021/01/22 00:19:48;;;;;;;2.43;1.07;;;11.70;99.90;;;;;;5044756;28;20446;-79
2021/01/22 00:22:15;;;;;;;2.50;1.00;;;11.70;99.90;;;;;;5047818;28;20453;-79
2021/01/22 00:24:42;;;;;;;2.80;1.00;;;11.60;99.90;;;;;;5050998;28;20427;-80
2021/01/22 00:27:08;;;;;;;2.80;0.90;;;11.60;99.90;;;;;;5052129;28;20496;-80
2021/01/22 00:29:35;;;;;;;2.77;0.90;;;11.50;99.90;;;;;;5046062;28;20449;-81
2021/01/22 00:32:02;;;;;;;2.57;1.00;;;11.50;99.90;;;;;;5045134;28;20457;-81
2021/01/22 00:34:29;;;;;;;3.87;1.30;;;11.40;99.90;;;;;;5048270;28;20869;-81
2021/01/22 00:36:55;;;;;;;3.17;1.10;;;11.30;99.90;;;;;;5044517;28;20449;-81
2021/01/22 00:39:22;;;;;;;3.17;0.90;;;11.20;99.90;;;;;;5046311;28;20462;-80
2021/01/22 00:41:48;;;;;;;2.43;0.97;;;11.20;99.90;;;;;;5022646;28;20455;-82
2021/01/22 00:44:15;;;;;;;2.40;0.70;;;11.20;99.90;;;;;;5021686;28;21043;-81
2021/01/22 00:46:41;;;;;;;2.57;0.90;;;11.20;99.90;;;;;;5042451;28;20457;-81
2021/01/22 00:49:09;;;;;;;2.97;0.83;;;11.10;99.90;;;;;;5059556;28;20495;-81
2021/01/22 00:51:35;;;;;;;2.20;0.87;;;11.00;99.90;;;;;;5043340;28;20458;-81
2021/01/22 00:54:02;;;;;;;2.20;0.77;;;11.00;99.90;;;;;;5041063;28;20476;-80
2021/01/22 00:56:29;;;;;;;2.50;0.80;;;11.00;99.90;;;;;;5033143;28;20523;-81
2021/01/22 00:58:55;;;;;;;2.20;0.73;;;11.00;99.90;;;;;;5032792;28;20463;-80
2021/01/22 01:01:22;;;;;;;3.83;1.00;;;10.90;99.90;;;;;;5032806;28;20440;-80
2021/01/22 01:03:48;;;;;;;2.67;1.00;;;10.90;99.90;;;;;;5033137;28;20424;-82
2021/01/22 01:06:16;;;;;;;2.77;1.20;;;10.90;99.90;;;;;;5033736;28;20450;-79
2021/01/22 01:08:42;;;;;;;2.23;0.87;;;10.80;99.90;;;;;;5048519;28;20571;-80
2021/01/22 01:11:09;;;;;;;2.37;0.70;;;10.70;99.90;;;;;;5036475;28;20461;-81
2021/01/22 01:13:36;;;;;;;3.90;0.90;;;10.80;99.90;;;;;;5036150;28;20450;-80
2021/01/22 01:16:02;;;;;;;2.03;0.60;;;10.80;99.90;;;;;;5035092;28;20454;-81
2021/01/22 01:18:29;;;;;;;2.40;1.00;;;10.70;99.90;;;;;;5033181;28;20452;-81
2021/01/22 01:20:56;;;;;;;2.40;0.90;;;10.80;99.90;;;;;;5039080;28;20454;-81
2021/01/22 01:23:23;;;;;;;2.40;0.70;;;10.80;99.90;;;;;;5043930;28;20453;-80
2021/01/22 01:25:50;;;;;;;3.40;1.30;;;10.80;99.90;;;;;;5043572;28;20476;-81
2021/01/22 01:28:16;;;;;;;2.33;0.70;;;10.70;99.90;;;;;;5043110;28;20577;-80
2021/01/22 01:30:43;;;;;;;2.80;1.17;;;10.70;99.90;;;;;;5040383;28;20449;-80
2021/01/22 01:33:10;;;;;;;3.60;0.70;;;10.70;99.90;;;;;;5042948;28;20528;-80
2021/01/22 01:35:37;;;;;;;3.47;0.90;;;10.70;99.90;;;;;;5042317;28;20444;-80
2021/01/22 01:38:03;;;;;;;2.70;0.73;;;10.80;99.90;;;;;;5039907;28;20455;-79
2021/01/22 01:40:31;;;;;;;2.80;1.10;;;10.80;99.90;;;;;;5039827;28;20451;-80
2021/01/22 01:42:57;;;;;;;2.43;0.70;;;10.70;99.90;;;;;;5039177;28;20479;-79
2021/01/22 01:45:25;;;;;;;2.07;0.60;;;10.70;99.90;;;;;;5044752;28;20466;-80
2021/01/22 01:47:51;;;;;;;2.00;0.50;;;10.80;99.90;;;;;;5042169;28;20494;-79
2021/01/22 01:50:18;;;;;;;2.70;0.90;;;10.80;99.90;;;;;;5048506;28;20412;-81
2021/01/22 01:52:45;;;;;;;2.70;0.80;;;10.90;99.90;;;;;;5046170;28;20446;-80
2021/01/22 01:55:12;;;;;;;2.00;0.50;;;10.90;99.90;;;;;;5041006;28;20457;-81
2021/01/22 01:57:40;;;;;;;2.20;0.70;;;10.90;99.90;;;;;;5041421;28;20585;-78
2021/01/22 02:00:08;;;;;;;2.40;0.80;;;10.90;99.90;;;;;;5043372;28;20425;-80
2021/01/22 02:02:35;;;;;;;2.90;0.70;;;11.00;99.90;;;;;;5041952;28;20458;-81
2021/01/22 02:05:01;;;;;;;2.43;0.80;;;11.00;99.90;;;;;;5038269;28;20455;-80
2021/01/22 02:07:28;;;;;;;2.30;0.70;;;11.00;99.90;;;;;;5036887;28;20547;-81
2021/01/22 02:09:55;;;;;;;2.20;0.70;;;11.00;99.90;;;;;;5056025;28;21005;-81
2021/01/22 02:12:22;;;;;;;2.87;0.90;;;11.00;99.90;;;;;;5056361;28;20502;-81
2021/01/22 02:14:50;;;;;;;2.77;0.70;;;11.00;99.90;;;;;;5055995;28;20434;-81
2021/01/22 02:17:17;;;;;;;2.20;0.77;;;11.10;99.90;;;;;;5054699;28;20443;-81
2021/01/22 02:20:04;;;;;;;2.30;0.70;;;11.10;99.90;;;;;;5036530;28;20509;-82
2021/01/22 02:22:31;;;;;;;2.70;1.00;;;11.00;99.90;;;;;;5040025;28;20454;-80
2021/01/22 02:24:59;;;;;;;2.17;0.83;;;11.00;99.90;;;;;;5036309;28;20461;-82
2021/01/22 02:27:28;;;;;;;2.40;0.77;;;11.00;99.90;;;;;;5035560;28;20512;-82
2021/01/22 02:29:54;;;;;;;3.10;0.90;;;10.90;99.90;;;;;;5037530;28;20849;-80
2021/01/22 02:32:21;;;;;;;2.40;0.80;;;10.90;99.90;;;;;;5035239;28;20427;-82
2021/01/22 02:34:53;;;;;;;3.43;1.30;;;10.90;99.90;;;;;;5034326;28;20568;-81
2021/01/22 02:37:20;;;;;;;2.93;1.10;;;11.00;99.90;;;;;;5032503;28;20483;-81
2021/01/22 02:39:51;;;;;;;2.63;0.90;;;11.00;99.90;;;;;;5032369;28;20454;-80
2021/01/22 02:42:21;;;;;;;3.23;1.00;;;11.00;99.90;;;;;;5022605;28;20543;-82
2021/01/22 02:44:48;;;;;;;2.57;0.80;;;11.00;99.90;;;;;;5036523;28;20454;-81
2021/01/22 02:47:16;;;;;;;2.70;1.10;;;10.90;99.90;;;;;;5034681;28;20547;-81
2021/01/22 02:49:42;;;;;;;2.80;0.80;;;10.90;99.90;;;;;;5035717;28;20432;-81
2021/01/22 02:52:10;;;;;;;3.27;0.87;;;10.90;99.90;;;;;;5035702;28;20453;-82
2021/01/22 02:54:36;;;;;;;2.97;1.10;;;10.90;99.90;;;;;;5036037;28;20924;-82
2021/01/22 02:57:19;;;;;;;2.40;0.83;;;10.80;99.90;;;;;;5035541;28;20516;-81
2021/01/22 03:00:01;;;;;;;2.40;0.83;;;10.80;99.90;;;;;;5055280;28;20428;-82
2021/01/22 03:02:34;;;;;;;4.10;1.13;;;10.70;99.90;;;;;;5016321;28;20451;-81
2021/01/22 03:05:01;;;;;;;3.00;1.00;;;10.70;99.90;;;;;;5032922;28;20826;-82
2021/01/22 03:07:45;;;;;;;2.20;0.83;;;10.70;99.90;;;;;;5037611;28;20580;-82
2021/01/22 03:10:14;;;;;;;3.20;1.17;;;10.60;99.90;;;;;;5039600;28;20465;-82
2021/01/22 03:12:42;;;;;;;4.23;1.30;;;10.60;99.90;;;;;;5043111;28;20457;-81
2021/01/22 03:15:12;;;;;;;7.50;1.17;;;10.60;99.90;;;;;;5043780;28;20465;-80
2021/01/22 03:17:38;;;;;;;4.80;1.00;;;10.60;99.90;;;;;;5040641;28;20476;-82
2021/01/22 03:20:07;;;;;;;3.80;1.00;;;10.60;99.90;;;;;;5059120;28;20638;-81
2021/01/22 03:22:34;;;;;;;3.80;1.33;;;10.50;99.90;;;;;;5048153;28;20450;-81
2021/01/22 03:25:00;;;;;;;2.40;0.80;;;10.60;99.90;;;;;;5039058;28;20446;-82
2021/01/22 03:27:27;;;;;;;3.37;1.00;;;10.60;99.90;;;;;;5039307;28;20491;-80
2021/01/22 03:29:53;;;;;;;4.20;1.20;;;10.50;99.90;;;;;;5037817;28;20454;-80
2021/01/22 03:32:21;;;;;;;2.70;1.07;;;10.50;99.90;;;;;;5051061;28;20446;-82
2021/01/22 03:34:47;;;;;;;2.43;1.07;;;10.50;99.90;;;;;;5035917;28;20543;-81
2021/01/22 03:37:14;;;;;;;3.43;1.17;;;10.50;99.90;;;;;;5035030;28;20485;-81
2021/01/22 03:39:40;;;;;;;2.20;0.80;;;10.50;99.90;;;;;;5035199;28;20970;-80
2021/01/22 03:42:07;;;;;;;3.57;1.23;;;10.40;99.90;;;;;;5035134;28;20458;-81
2021/01/22 03:44:33;;;;;;;7.20;1.23;;;10.50;99.90;;;;;;5035517;28;20519;-80
2021/01/22 03:47:00;;;;;;;5.40;1.30;;;10.40;99.90;;;;;;5036411;28;20965;-81
2021/01/22 03:49:27;;;;;;;3.57;1.07;;;10.40;99.90;;;;;;5037264;28;20450;-82
2021/01/22 03:51:54;;;;;;;3.30;1.00;;;10.30;99.90;;;;;;5036716;28;21066;-81
2021/01/22 03:54:21;;;;;;;3.97;1.20;;;10.40;99.90;;;;;;5034523;28;21003;-81
2021/01/22 03:56:47;;;;;;;3.77;1.27;;;10.30;99.90;;;;;;5034773;28;20456;-80
2021/01/22 03:59:14;;;;;;;7.00;1.30;;;10.30;99.90;;;;;;5033509;28;20442;-81
2021/01/22 04:01:40;;;;;;;8.13;1.63;;;10.30;99.90;;;;;;5050630;28;20544;-80
2021/01/22 04:04:07;;;;;;;4.00;1.10;;;10.30;99.90;;;;;;5040879;28;20457;-81
2021/01/22 04:06:35;;;;;;;3.07;1.00;;;10.30;99.90;;;;;;5035560;28;20543;-81
2021/01/22 04:09:02;;;;;;;4.00;1.13;;;10.20;99.90;;;;;;5034364;28;20523;-80
2021/01/22 04:11:28;;;;;;;3.50;1.07;;;10.30;99.90;;;;;;5034994;28;20457;-81
2021/01/22 04:13:55;;;;;;;3.07;1.10;;;10.20;99.90;;;;;;5034847;28;20465;-81
2021/01/22 04:16:21;;;;;;;3.63;0.90;;;10.20;99.90;;;;;;5035216;28;20431;-81
2021/01/22 04:18:48;;;;;;;3.70;1.17;;;10.20;99.90;;;;;;5031629;28;20460;-81
2021/01/22 04:21:15;;;;;;;8.63;1.30;;;10.20;99.90;;;;;;5035159;28;20424;-81
2021/01/22 04:23:42;;;;;;;2.97;1.17;;;10.20;99.90;;;;;;5034356;28;20487;-81
2021/01/22 04:26:09;;;;;;;4.30;1.43;;;10.20;99.90;;;;;;5034836;28;20450;-81
2021/01/22 04:28:35;;;;;;;3.53;1.20;;;10.20;99.90;;;;;;5038103;28;20856;-81
2021/01/22 04:31:02;;;;;;;2.90;1.20;;;10.30;99.90;;;;;;5044223;28;20445;-80
2021/01/22 04:33:28;;;;;;;3.17;1.20;;;10.30;99.90;;;;;;5042999;28;20453;-82
2021/01/22 04:35:55;;;;;;;3.30;1.20;;;10.30;99.90;;;;;;5039703;28;20596;-82
2021/01/22 04:38:21;;;;;;;5.83;0.97;;;10.30;99.90;;;;;;5042997;28;20246;-82
2021/01/22 04:40:49;;;;;;;3.87;1.30;;;10.30;99.90;;;;;;5042109;28;20457;-81
2021/01/22 04:43:16;;;;;;;3.60;1.90;;;10.30;99.90;;;;;;5039362;28;20469;-80
2021/01/22 04:45:43;;;;;;;3.73;1.07;;;10.20;99.90;;;;;;5052111;28;20449;-80
2021/01/22 04:48:10;;;;;;;3.90;1.13;;;10.30;99.90;;;;;;5048679;28;20482;-80
2021/01/22 04:50:40;;;;;;;2.80;1.20;;;10.30;99.90;;;;;;5051131;28;20964;-78
2021/01/22 04:53:10;;;;;;;3.87;1.20;;;10.30;99.90;;;;;;5049735;28;20454;-80
2021/01/22 04:55:40;;;;;;;2.77;0.97;;;10.40;99.90;;;;;;5048572;28;20465;-79
2021/01/22 04:58:10;;;;;;;3.83;1.20;;;10.40;99.90;;;;;;5050128;28;20480;-79
2021/01/22 05:00:38;;;;;;;3.90;0.70;;;10.40;99.90;;;;;;5067959;28;20468;-78
2021/01/22 05:03:05;;;;;;;3.70;1.20;;;10.40;99.90;;;;;;5068018;28;20456;-79
2021/01/22 05:05:32;;;;;;;4.67;0.90;;;10.40;99.90;;;;;;5030516;28;20463;-79
2021/01/22 05:07:58;;;;;;;4.70;1.30;;;10.50;99.90;;;;;;5030191;28;20497;-78
2021/01/22 05:10:25;;;;;;;3.57;0.90;;;10.50;99.90;;;;;;5049040;28;20453;-78
2021/01/22 05:12:51;;;;;;;3.47;0.93;;;10.50;99.90;;;;;;5052189;28;20791;-81
2021/01/22 05:15:22;;;;;;;2.07;0.80;;;10.60;99.90;;;;;;5051718;28;20450;-79
2021/01/22 05:17:57;;;;;;;3.67;0.60;;;10.60;99.90;;;;;;5049279;28;20492;-78
2021/01/22 05:20:32;;;;;;;3.30;1.07;;;10.60;99.90;;;;;;5049999;28;20453;-79
2021/01/22 05:22:59;;;;;;;2.73;0.67;;;10.50;99.90;;;;;;5044966;28;20460;-81
2021/01/22 05:25:26;;;;;;;2.17;0.63;;;10.60;99.90;;;;;;5048769;28;20450;-82
2021/01/22 05:27:55;;;;;;;2.10;0.60;;;10.50;99.90;;;;;;5050563;28;20536;-82
2021/01/22 05:30:24;;;;;;;2.17;0.60;;;10.50;99.90;;;;;;5049288;28;20820;-81
2021/01/22 05:32:51;;;;;;;2.63;0.60;;;10.50;99.90;;;;;;5049949;28;20433;-81
2021/01/22 05:35:31;;;;;;;5.87;1.00;;;10.50;99.90;;;;;;5045179;28;20455;-81
2021/01/22 05:37:58;;;;;;;2.30;0.70;;;10.50;99.90;;;;;;5046734;28;20484;-81
2021/01/22 05:40:26;;;;;;;4.83;0.87;;;10.50;99.90;;;;;;5041132;28;20463;-81
2021/01/22 05:42:54;;;;;;;2.60;0.70;;;10.50;99.90;;;;;;5047248;28;20515;-82
2021/01/22 05:45:37;;;;;;;5.60;0.93;;;10.50;99.90;;;;;;5038349;28;20432;-80
2021/01/22 05:48:05;;;;;;;2.27;0.63;;;10.50;99.90;;;;;;5038310;28;20448;-81
2021/01/22 05:50:50;;;;;;;2.97;0.70;;;10.50;99.90;;;;;;5049134;28;20952;-79
2021/01/22 05:53:18;;;;;;;4.37;0.77;;;10.50;99.90;;;;;;5038245;28;20464;-81
2021/01/22 05:55:45;;;;;;;2.40;0.80;;;10.50;99.90;;;;;;5045141;28;20438;-81
2021/01/22 05:58:28;;;;;;;5.03;0.67;;;10.50;99.90;;;;;;5039000;28;20470;-80
2021/01/22 06:01:07;;;;;;;2.27;0.67;;;10.50;99.90;;;;;;5038564;28;20533;-80
2021/01/22 06:03:34;;;;;;;3.70;0.73;;;10.50;99.90;;;;;;5042054;28;20511;-80
2021/01/22 06:06:01;;;;;;;2.00;0.60;;;10.50;99.90;;;;;;5040944;28;20425;-81
2021/01/22 06:08:28;;;;;;;4.43;0.80;;;10.50;99.90;;;;;;5037009;28;20489;-81
2021/01/22 06:10:55;;;;;;;1.93;0.57;;;10.50;99.90;;;;;;5040987;28;20454;-81
2021/01/22 06:13:26;;;;;;;3.30;0.80;;;10.50;99.90;;;;;;5037069;28;20945;-81
2021/01/22 06:15:56;;;;;;;3.27;0.80;;;10.60;99.90;;;;;;5036081;28;20436;-81
2021/01/22 06:18:31;;;;;;;4.93;0.90;;;10.60;99.90;;;;;;5036451;28;20478;-81
2021/01/22 06:21:14;;;;;;;3.30;0.80;;;10.60;99.90;;;;;;5037180;28;20424;-80
2021/01/22 06:23:42;;;;;;;2.40;0.70;;;10.60;99.90;;;;;;5036541;28;20539;-80
2021/01/22 06:26:11;;;;;;;2.87;0.70;;;10.60;99.90;;;;;;5037167;28;20428;-81
2021/01/22 06:28:38;;;;;;;2.67;0.93;;;10.60;99.90;;;;;;5037184;28;20512;-80
2021/01/22 06:31:08;;;;;;;2.50;0.70;;;10.60;99.90;;;;;;5036267;28;20469;-81
2021/01/22 06:33:36;;;;;;;2.30;0.67;;;10.60;99.90;;;;;;5037609;28;20968;-80
2021/01/22 06:36:05;;;;;;;2.83;0.70;;;10.60;99.90;;;;;;5041874;28;20417;-80
2021/01/22 06:38:32;;;;;;;5.10;0.80;;;10.60;99.90;;;;;;5044892;28;20498;-80
2021/01/22 06:40:59;;;;;;;2.43;0.70;;;10.60;99.90;;;;;;5032239;28;20441;-80
2021/01/22 06:43:26;;;;;;;2.30;0.70;;;10.60;99.90;;;;;;5033474;28;20502;-79
2021/01/22 06:46:00;;;;;;;2.83;0.70;;;10.60;99.90;;;;;;5031799;28;20509;-79
2021/01/22 06:48:27;;;;;;;3.33;0.70;;;10.60;99.90;;;;;;5032619;28;20500;-79
2021/01/22 06:51:14;;;;;;;4.87;0.80;;;10.20;99.90;;;;;;5036810;28;20799;-80
2021/01/22 06:54:07;;;;;;;4.83;0.90;;;10.60;99.90;;;;;;5033369;28;20535;-80
2021/01/22 06:56:35;;;;;;;2.77;1.00;;;10.60;99.90;;;;;;5024570;28;20425;-80
2021/01/22 06:59:38;;;;;;;2.47;0.87;;;10.70;99.90;;;;;;5030944;28;20519;-80
2021/01/22 07:02:34;;;;;;;2.80;0.90;;;10.60;99.90;;;;;;5028586;28;20555;-80
2021/01/22 07:05:00;;;;;;;3.47;0.80;;;10.60;99.90;;;;;;5031948;28;20450;-80
2021/01/22 07:07:45;;;;;;;3.73;0.90;;;10.60;99.90;;;;;;5031361;28;20535;-80
2021/01/22 07:10:12;;;;;;;6.50;0.90;;;10.60;99.90;;;;;;5030782;28;20449;-79
2021/01/22 07:12:40;;;;;;;4.30;0.90;;;10.50;99.90;;;;;;5031151;28;20433;-79
2021/01/22 07:15:28;;;;;;;2.50;0.70;;;10.50;99.90;;;;;;5029814;28;20457;-80
2021/01/22 07:17:59;;;;;;;6.80;1.10;;;10.50;99.90;;;;;;5029414;28;20485;-79
2021/01/22 07:20:28;;;;;;;5.10;0.80;;;10.50;99.90;;;;;;5043967;28;20447;-80
2021/01/22 07:22:57;;;;;;;3.40;1.00;;;10.50;99.90;;;;;;5044228;28;20486;-80
2021/01/22 07:25:31;;;;;;;2.53;1.00;;;10.50;99.90;;;;;;5031306;28;20420;-80
2021/01/22 07:28:02;;;;;;;3.10;0.90;;;10.40;99.90;;;;;;5030532;28;20492;-79
2021/01/22 07:30:38;;;;;;;3.03;0.80;;;10.40;99.90;;;;;;5032075;28;20458;-80
2021/01/22 07:33:37;;;;;;;3.43;1.10;;;10.50;99.90;;;;;;5032223;28;20449;-79
2021/01/22 07:36:06;;;;;;;3.23;0.90;;;10.50;99.90;;;;;;5031574;28;20450;-80
2021/01/22 07:38:35;;;;;;;2.37;0.67;;;10.50;99.90;;;;;;5030471;28;20473;-80
2021/01/22 07:41:02;;;;;;;3.83;1.00;;;10.50;99.90;;;;;;5020327;28;20446;-79
2021/01/22 07:43:29;;;;;;;3.13;0.73;;;10.50;99.90;;;;;;5030765;28;20425;-79
2021/01/22 07:46:05;;;;;;;2.47;0.77;;;10.50;99.90;;;;;;5030721;28;20445;-79
2021/01/22 07:48:32;;;;;;;2.97;1.10;;;10.50;99.90;;;;;;5044845;28;20484;-79
2021/01/22 07:50:59;;;;;;;2.97;1.10;;;10.40;99.90;;;;;;5052975;28;20423;-80
2021/01/22 07:53:26;;;;;;;3.33;1.00;;;10.50;99.90;;;;;;5055883;28;20476;-79
2021/01/22 07:55:54;;;;;;;3.87;1.00;;;10.50;99.90;;;;;;5044805;28;20537;-80
2021/01/22 07:58:21;;;;;;;5.73;1.40;;;10.60;99.90;;;;;;5043433;28;20485;-81
2021/01/22 08:00:47;;;;;;;2.30;0.80;;;10.60;99.90;;;;;;5035131;28;20433;-78
2021/01/22 08:03:14;;;;;;;5.40;1.40;;;10.60;99.90;;;;;;5014566;28;20459;-79
2021/01/22 08:05:41;;;;;;;3.87;1.30;;;10.60;99.90;;;;;;5014860;28;20797;-80
2021/01/22 08:08:19;;;;;;;2.77;1.00;;;10.60;99.90;;;;;;5019323;28;20487;-80
2021/01/22 08:10:46;;;;;;;2.87;1.30;;;10.60;99.90;;;;;;5034083;28;21384;-80
2021/01/22 08:13:15;;;;;;;2.70;0.90;;;10.60;99.90;;;;;;5034380;28;20464;-81
2021/01/22 08:15:43;;;;;;;2.47;0.97;;;10.60;99.90;;;;;;5034041;28;20485;-81
2021/01/22 08:18:09;;;;;;;3.33;1.00;;;10.60;99.90;;;;;;5034073;28;20473;-81
2021/01/22 08:20:36;;;;;;;6.50;0.80;;;10.70;99.90;;;;;;5034010;28;20454;-79
2021/01/22 08:23:03;;;;;;;3.70;1.03;;;10.80;99.90;;;;;;5033663;28;20475;-76
2021/01/22 08:25:31;;;;;;;3.50;0.90;;;10.90;99.90;;;;;;5032534;28;20456;-79
2021/01/22 08:27:59;;;;;;;6.63;1.50;;;10.90;99.90;;;;;;5032471;28;20826;-78
2021/01/22 08:30:27;;;;;;;3.27;1.00;;;10.90;99.90;;;;;;5032023;28;20912;-79
2021/01/22 08:32:54;;;;;;;3.20;1.33;;;11.00;99.90;;;;;;5033709;28;20511;-80
2021/01/22 08:35:22;;;;;;;2.83;0.83;;;11.10;99.90;;;;;;5039127;28;20461;-83
2021/01/22 08:37:50;;;;;;;2.87;1.07;;;11.10;99.90;;;;;;5039236;28;20437;-82
2021/01/22 08:40:17;;;;;;;6.47;1.33;;;11.20;99.90;;;;;;5035853;28;20469;-79
2021/01/22 08:42:57;;;;;;;4.50;0.90;;;11.20;99.90;;;;;;5042987;28;20476;-81
2021/01/22 08:45:24;;;;;;;3.03;1.07;;;11.20;99.90;;;;;;5036050;28;20474;-83
2021/01/22 08:47:53;;;;;;;3.53;1.07;;;11.20;99.90;;;;;;5034939;28;20493;-76
2021/01/22 08:50:19;;;;;;;3.40;1.17;;;11.30;99.90;;;;;;5033867;28;20439;-79
2021/01/22 08:52:46;;;;;;;3.30;0.77;;;11.40;99.90;;;;;;5034034;28;20441;-77
2021/01/22 08:55:20;;;;;;;2.97;1.10;;;11.50;99.90;;;;;;5034137;28;20855;-76
2021/01/22 08:58:00;;;;;;;4.07;1.10;;;11.60;99.90;;;;;;5032427;28;20481;-77
2021/01/22 09:00:27;;;;;;;8.43;3.87;;;11.60;99.90;;;;;;5033737;28;20920;-78
2021/01/22 09:02:54;;;;;;;3.33;1.20;;;11.70;99.90;;;;;;5026627;28;20413;-77
2021/01/22 09:05:21;;;;;;;3.03;1.17;;;11.70;99.90;;;;;;5028508;28;20511;-77
2021/01/22 09:08:04;;;;;;;6.13;1.80;;;11.70;99.90;;;;;;5029489;28;20886;-77
2021/01/22 09:10:32;;;;;;;3.10;0.90;;;11.80;99.90;;;;;;5030914;28;20487;-77
2021/01/22 09:13:10;;;;;;;3.40;1.23;;;11.80;99.90;;;;;;5029849;28;20424;-76
2021/01/22 09:15:36;;;;;;;3.90;0.83;;;11.70;99.90;;;;;;5030166;28;20503;-77
2021/01/22 09:18:15;;;;;;;2.77;0.93;;;11.80;99.90;;;;;;5029252;28;20989;-76
2021/01/22 09:20:43;;;;;;;4.30;1.20;;;11.70;99.90;;;;;;5030127;28;20515;-75
2021/01/22 09:23:09;;;;;;;3.00;1.07;;;11.80;99.90;;;;;;5030115;28;20972;-75
2021/01/22 09:25:36;;;;;;;3.60;0.83;;;11.80;99.90;;;;;;5030132;28;20469;-74
2021/01/22 09:28:03;;;;;;;2.50;0.90;;;11.80;99.90;;;;;;5029185;28;20481;-75
2021/01/22 09:30:30;;;;;;;4.40;1.10;;;11.80;99.90;;;;;;5030913;28;20457;-75
2021/01/22 09:32:58;;;;;;;3.10;0.80;;;11.80;99.90;;;;;;5030840;28;20432;-78
2021/01/22 09:35:27;;;;;;;3.60;1.30;;;11.90;99.90;;;;;;5036065;28;20443;-80
2021/01/22 09:37:54;;;;;;;5.07;0.90;;;12.00;99.90;;;;;;5032450;28;21225;-81
2021/01/22 09:40:21;;;;;;;5.13;1.60;;;12.10;99.90;;;;;;5031849;28;20507;-80
2021/01/22 09:42:48;;;;;;;3.60;0.97;;;12.20;99.90;;;;;;5030210;28;20480;-80
2021/01/22 09:45:16;;;;;;;3.87;1.03;;;12.30;99.90;;;;;;5032001;28;20433;-81
2021/01/22 09:47:43;;;;;;;5.13;1.43;;;12.50;99.90;;;;;;5030460;28;20482;-80
2021/01/22 09:50:11;;;;;;;4.83;1.77;;;12.60;99.90;;;;;;5032359;28;20796;-82
2021/01/22 09:52:39;;;;;;;4.50;1.23;;;12.70;99.90;;;;;;5037063;28;20429;-80
2021/01/22 09:55:08;;;;;;;3.40;1.20;;;12.70;99.60;;;;;;5030523;28;20454;-79
2021/01/22 09:57:34;;;;;;;5.73;1.60;;;12.80;99.50;;;;;;5031171;28;20489;-79
2021/01/22 10:00:01;;;;;;;6.53;1.33;;;12.80;99.40;;;;;;5031035;28;20453;-80
2021/01/22 10:02:28;;;;;;;4.20;1.17;;;12.70;99.40;;;;;;5032133;28;20923;-81
2021/01/22 10:04:54;;;;;;;7.40;1.40;;;12.70;99.30;;;;;;5043562;28;20460;-83
2021/01/22 10:07:21;;;;;;;3.70;1.40;;;12.70;99.10;;;;;;5045937;28;20513;-81
2021/01/22 10:09:48;;;;;;;5.70;1.50;;;12.90;99.20;;;;;;5038261;28;20486;-83
2021/01/22 10:12:15;;;;;;;8.43;2.30;;;13.00;98.90;;;;;;5037064;28;20480;-83
2021/01/22 10:14:41;;;;;;;6.67;1.60;;;13.10;98.70;;;;;;5039545;28;20535;-81
2021/01/22 10:17:08;;;;;;;3.83;1.20;;;13.20;98.60;;;;;;5042522;28;20486;-80
2021/01/22 10:19:35;;;;;;;4.30;1.43;;;13.30;98.30;;;;;;5035587;28;20425;-80
2021/01/22 10:22:02;;;;;;;3.40;1.10;;;13.30;98.20;;;;;;5038482;28;20431;-79
2021/01/22 10:24:28;;;;;;;3.70;1.30;;;13.30;98.10;;;;;;5036913;28;20447;-78
2021/01/22 10:26:56;;;;;;;3.20;1.40;;;13.30;98.20;;;;;;5035741;28;20500;-79
2021/01/22 10:29:22;;;;;;;5.63;1.00;;;13.20;98.30;;;;;;5033539;28;20448;-76
2021/01/22 10:31:49;;;;;;;8.60;1.50;;;13.20;98.40;;;;;;5030088;28;20516;-76
2021/01/22 10:34:16;;;;;;;6.60;1.40;;;13.10;98.30;;;;;;5029152;28;20454;-77
2021/01/22 10:36:42;;;;;;;13.90;2.33;;;13.30;98.30;;;;;;5033308;28;20507;-80
2021/01/22 10:39:10;;;;;;;3.70;1.10;;;13.40;98.20;;;;;;5039364;28;20466;-82
2021/01/22 10:41:36;;;;;;;7.50;1.50;;;13.50;98.10;;;;;;5033936;28;20428;-82
2021/01/22 10:44:04;;;;;;;4.83;1.40;;;13.50;98.10;;;;;;5034003;28;20429;-82
2021/01/22 10:46:32;;;;;;;4.70;1.27;;;13.50;98.10;;;;;;5033712;28;20472;-81
2021/01/22 10:48:58;;;;;;;4.20;1.77;;;13.50;98.10;;;;;;5033082;28;20493;-80
2021/01/22 10:51:25;;;;;;;3.60;1.40;;;13.50;98.00;;;;;;5034142;28;20425;-81
2021/01/22 10:53:55;;;;;;;5.43;1.67;;;13.60;97.90;;;;;;5033194;28;20435;-80
2021/01/22 10:56:21;;;;;;;3.47;1.47;;;13.70;97.80;;;;;;5024216;28;20432;-82
2021/01/22 10:58:48;;;;;;;4.10;1.40;;;13.70;97.70;;;;;;5033018;28;20576;-79
2021/01/22 11:01:16;;;;;;;16.37;2.63;;;13.80;97.60;;;;;;5033273;28;20556;-79
2021/01/22 11:03:42;;;;;;;4.00;1.47;;;13.70;97.20;;;;;;5032064;28;20459;-78
2021/01/22 11:06:09;;;;;;;3.80;1.00;;;13.90;97.20;;;;;;5031885;28;20431;-77
2021/01/22 11:08:36;;;;;;;4.20;1.43;;;13.90;97.10;;;;;;5031618;28;20481;-77
2021/01/22 11:11:03;;;;;;;5.23;1.33;;;13.80;96.90;;;;;;5033101;28;20432;-81
2021/01/22 11:13:29;;;;;;;4.80;1.20;;;13.80;97.10;;;;;;5033608;28;20474;-80
2021/01/22 11:15:56;;;;;;;4.13;1.23;;;13.90;97.20;;;;;;5034249;28;20454;-82
2021/01/22 11:18:23;;;;;;;2.73;0.80;;;14.00;97.20;;;;;;5038443;28;20447;-82
2021/01/22 11:20:50;;;;;;;4.87;1.20;;;14.00;97.20;;;;;;5041349;28;20449;-79
2021/01/22 11:23:17;;;;;;;7.00;1.67;;;14.10;97.10;;;;;;5037017;28;20432;-83
2021/01/22 11:25:43;;;;;;;3.70;1.10;;;14.10;97.00;;;;;;5033616;28;20443;-82
2021/01/22 11:28:10;;;;;;;4.13;1.17;;;14.10;96.90;;;;;;5037048;28;20460;-80
2021/01/22 11:30:36;;;;;;;2.50;0.80;;;14.10;96.80;;;;;;5042510;28;20462;-81
2021/01/22 11:33:03;;;;;;;2.90;1.07;;;14.10;96.70;;;;;;5043521;28;20975;-81
2021/01/22 11:35:33;;;;;;;3.70;1.10;;;14.10;96.60;;;;;;5036551;28;20453;-75
2021/01/22 11:38:00;;;;;;;8.20;2.97;;;14.20;96.30;;;;;;5030857;28;20456;-75
2021/01/22 11:40:26;;;;;;;4.80;1.30;;;14.20;96.20;;;;;;5032909;28;20429;-75
2021/01/22 11:42:53;;;;;;;3.63;1.27;;;14.10;96.00;;;;;;5033466;28;20432;-80
2021/01/22 11:45:19;;;;;;;5.00;1.13;;;14.20;96.00;;;;;;5037770;28;20970;-80
2021/01/22 11:47:46;;;;;;;2.90;0.90;;;14.30;96.00;;;;;;5037588;28;20495;-80
2021/01/22 11:50:13;;;;;;;4.80;2.07;;;14.30;96.20;;;;;;5036726;28;20779;-81
2021/01/22 11:52:40;;;;;;;9.03;1.90;;;14.40;95.80;;;;;;5038589;28;20517;-80
2021/01/22 11:55:08;;;;;;;3.43;1.20;;;14.40;95.70;;;;;;5035982;28;20451;-84
2021/01/22 11:57:41;;;;;;;5.23;1.60;;;14.40;95.60;;;;;;5034045;28;20478;-78
2021/01/22 12:00:09;;;;;;;3.83;1.00;;;14.50;95.40;;;;;;5034937;28;20409;-77
2021/01/22 12:02:36;;;;;;;4.23;1.40;;;14.30;95.40;;;;;;5035976;28;20507;-78
2021/01/22 12:05:02;;;;;;;4.40;1.17;;;14.40;95.70;;;;;;5041506;28;20417;-80
2021/01/22 12:07:29;;;;;;;7.10;1.70;;;14.30;95.60;;;;;;5044660;28;20457;-78
2021/01/22 12:10:10;;;;;;;2.83;1.30;;;14.40;95.80;;;;;;5041854;28;20492;-80
2021/01/22 12:12:36;;;;;;;5.63;1.40;;;14.40;96.10;;;;;;5046098;28;20893;-79
2021/01/22 12:15:07;;;;;;;3.57;1.27;;;14.40;95.60;;;;;;5037234;28;20440;-81
2021/01/22 12:17:34;;;;;;;3.57;1.00;;;14.40;95.60;;;;;;5042189;28;20528;-80
2021/01/22 12:20:00;;;;;;;4.20;0.80;;;14.50;95.60;;;;;;5049259;28;20425;-80
2021/01/22 12:23:14;;;;;;;2.20;0.70;;;14.40;95.30;;;;;;5033581;28;20977;-79
2021/01/22 12:25:45;;;;;;;9.43;1.43;;;14.40;95.10;;;;;;4998318;28;20429;-79
2021/01/22 12:28:20;;;;;;;3.20;1.30;;;14.40;94.60;;;;;;5038944;28;20547;-77
2021/01/22 12:30:47;;;;;;;6.83;1.40;;;14.40;94.80;;;;;;5033124;28;20537;-75
2021/01/22 12:33:19;;;;;;;8.30;1.40;;;14.50;94.60;;;;;;5033600;28;20435;-76
2021/01/22 12:35:52;;;;;;;2.70;0.90;;;14.50;94.30;;;;;;5033995;28;20515;-77
2021/01/22 12:38:28;;;;;;;5.00;1.20;;;14.60;94.00;;;;;;5034271;28;20459;-76
2021/01/22 12:40:55;;;;;;;5.13;1.20;;;14.60;93.70;;;;;;5031620;28;20457;-76
2021/01/22 12:43:22;;;;;;;3.03;0.80;;;14.60;93.40;;;;;;5030836;28;20473;-76
2021/01/22 12:45:48;;;;;;;3.00;0.90;;;14.60;93.10;;;;;;5031500;28;20852;-76
2021/01/22 12:48:15;;;;;;;3.03;0.90;;;14.70;93.20;;;;;;5031577;28;20540;-75
2021/01/22 12:50:43;;;;;;;3.10;0.73;;;14.70;92.90;;;;;;5034959;28;20458;-76
2021/01/22 12:53:09;;;;;;;2.50;0.90;;;14.70;92.80;;;;;;5031715;28;20947;-76
2021/01/22 12:55:36;;;;;;;3.47;1.20;;;14.70;92.90;;;;;;5030960;28;20425;-76